Time;durP1;ratioP1;P1;durP2;ratioP2;P2;SDS_P1;SDS_P2;PMS_P1;PMS_P2;Temp;Humidity;BMP_temperature;BMP_pressure;BME280_temperature;BME280_humidity;BME280_pressure;Samples;Min_cycle;Max_cycle;Signal;HPM_P1;HPM_P2
2021/12/03 00:01:38;;;;;;;;;;;1.00;99.90;;;;;;5043180;28;19921;-66
2021/12/03 00:04:05;;;;;;;;;;;1.00;99.90;;;;;;5043327;28;19921;-66
2021/12/03 00:06:35;;;;;;;;;;;1.00;99.90;;;;;;5043321;28;20240;-65
2021/12/03 00:09:02;;;;;;;;;;;1.00;99.90;;;;;;5031175;28;19925;-65
2021/12/03 00:11:29;;;;;;;;;;;0.90;99.90;;;;;;5023819;28;19968;-66
2021/12/03 00:13:55;;;;;;;;;;;0.90;99.90;;;;;;5023366;28;20227;-65
2021/12/03 00:16:23;;;;;;;;;;;0.90;99.90;;;;;;5023893;28;19922;-65
2021/12/03 00:18:50;;;;;;;;;;;0.90;99.90;;;;;;5023741;28;19921;-65
2021/12/03 00:21:17;;;;;;;;;;;0.80;99.90;;;;;;5023690;28;19922;-65
2021/12/03 00:23:44;;;;;;;;;;;0.70;99.90;;;;;;5041822;28;19921;-66
2021/12/03 00:26:11;;;;;;;;;;;0.80;99.90;;;;;;5043433;28;19928;-65
2021/12/03 00:28:38;;;;;;;;;;;0.80;99.90;;;;;;5043513;28;19937;-66
2021/12/03 00:31:05;;;;;;;;;;;0.90;99.90;;;;;;5043346;28;19921;-66
2021/12/03 00:33:35;;;;;;;;;;;0.90;99.90;;;;;;5043248;28;20155;-65
2021/12/03 00:36:05;;;;;;;;;;;0.90;99.90;;;;;;5039302;28;19921;-65
2021/12/03 00:38:36;;;;;;;;;;;0.90;99.90;;;;;;5023696;28;19925;-66
2021/12/03 00:41:04;;;;;;;;;;;1.00;99.90;;;;;;5023686;28;19921;-65
2021/12/03 00:43:31;;;;;;;;;;;1.00;99.90;;;;;;5023510;28;20193;-67
2021/12/03 00:46:04;;;;;;;;;;;1.00;99.90;;;;;;5023574;28;19966;-65
2021/12/03 00:48:31;;;;;;;;;;;1.00;99.90;;;;;;5027414;28;19968;-65
2021/12/03 00:50:59;;;;;;;;;;;1.10;99.90;;;;;;5027051;28;20212;-65
2021/12/03 00:53:26;;;;;;;;;;;1.10;99.90;;;;;;5027046;28;19925;-65
2021/12/03 00:55:52;;;;;;;;;;;1.00;99.90;;;;;;5027101;28;19921;-65
2021/12/03 00:58:19;;;;;;;;;;;1.00;99.90;;;;;;5027145;28;19929;-65
2021/12/03 01:00:45;;;;;;;;;;;1.10;99.90;;;;;;5027077;28;19921;-66
2021/12/03 01:03:12;;;;;;;;;;;1.10;99.90;;;;;;5026636;28;19922;-65
2021/12/03 01:05:39;;;;;;;;;;;1.10;99.90;;;;;;5026723;28;19922;-65
2021/12/03 01:08:07;;;;;;;;;;;1.10;99.90;;;;;;5026917;28;19921;-65
2021/12/03 01:10:34;;;;;;;;;;;1.10;99.90;;;;;;5026705;28;19928;-65
2021/12/03 01:13:01;;;;;;;;;;;1.20;99.90;;;;;;5026830;28;19921;-65
2021/12/03 01:15:29;;;;;;;;;;;1.10;99.90;;;;;;5026604;28;19929;-65
2021/12/03 01:17:55;;;;;;;;;;;1.10;99.90;;;;;;5026744;28;19921;-65
2021/12/03 01:20:22;;;;;;;;;;;1.10;99.90;;;;;;5026755;28;19925;-65
2021/12/03 01:22:50;;;;;;;;;;;1.10;99.90;;;;;;5026584;28;19922;-68
2021/12/03 01:25:19;;;;;;;;;;;1.10;99.90;;;;;;5026143;28;20226;-65
2021/12/03 01:27:46;;;;;;;;;;;1.00;99.90;;;;;;5026559;28;20123;-66
2021/12/03 01:30:14;;;;;;;;;;;1.00;99.90;;;;;;5026187;28;20233;-65
2021/12/03 01:32:41;;;;;;;;;;;1.00;99.90;;;;;;5026115;28;19948;-65
2021/12/03 01:35:08;;;;;;;;;;;1.00;99.90;;;;;;5026251;28;19926;-65
2021/12/03 01:37:35;;;;;;;;;;;1.00;99.90;;;;;;5026328;28;19928;-65
2021/12/03 01:40:02;;;;;;;;;;;0.90;99.90;;;;;;5026467;28;19925;-65
2021/12/03 01:42:30;;;;;;;;;;;0.90;99.90;;;;;;5026367;28;20090;-65
2021/12/03 01:44:56;;;;;;;;;;;1.00;99.90;;;;;;5026056;28;20209;-65
2021/12/03 01:47:23;;;;;;;;;;;0.90;99.90;;;;;;5026125;28;19921;-65
2021/12/03 01:49:50;;;;;;;;;;;1.00;99.90;;;;;;5026218;28;19997;-66
2021/12/03 01:52:16;;;;;;;;;;;0.90;99.90;;;;;;5025207;28;20275;-65
2021/12/03 01:54:43;;;;;;;;;;;0.90;99.90;;;;;;5025659;28;20227;-65
2021/12/03 01:57:10;;;;;;;;;;;0.90;99.90;;;;;;5026042;28;19929;-65
2021/12/03 01:59:38;;;;;;;;;;;0.80;99.90;;;;;;5024973;28;20213;-65
2021/12/03 02:02:05;;;;;;;;;;;0.70;99.90;;;;;;5025661;28;19922;-65
2021/12/03 02:04:32;;;;;;;;;;;0.70;99.90;;;;;;5025774;28;19928;-65
2021/12/03 02:06:58;;;;;;;;;;;0.80;99.90;;;;;;5025833;28;19921;-66
2021/12/03 02:09:25;;;;;;;;;;;0.80;99.90;;;;;;5006228;28;19928;-65
2021/12/03 02:11:51;;;;;;;;;;;0.80;99.90;;;;;;5005825;28;20236;-65
2021/12/03 02:14:18;;;;;;;;;;;0.80;99.90;;;;;;5006017;28;19928;-65
2021/12/03 02:16:46;;;;;;;;;;;0.80;99.90;;;;;;5006227;28;19922;-65
2021/12/03 02:19:13;;;;;;;;;;;0.80;99.90;;;;;;5005717;28;20213;-65
2021/12/03 02:21:41;;;;;;;;;;;0.80;99.90;;;;;;5005687;28;19922;-65
2021/12/03 02:24:08;;;;;;;;;;;0.80;99.90;;;;;;5005593;28;19922;-65
2021/12/03 02:26:35;;;;;;;;;;;0.80;99.90;;;;;;5005855;28;19928;-65
2021/12/03 02:29:02;;;;;;;;;;;0.90;99.90;;;;;;5025744;28;19925;-66
2021/12/03 02:31:28;;;;;;;;;;;0.90;99.90;;;;;;5005396;28;19922;-65
2021/12/03 02:33:55;;;;;;;;;;;0.90;99.90;;;;;;5005622;28;19928;-65
2021/12/03 02:36:22;;;;;;;;;;;0.90;99.90;;;;;;5005611;28;19922;-65
2021/12/03 02:38:50;;;;;;;;;;;0.90;99.90;;;;;;5005433;28;20332;-65
2021/12/03 02:41:17;;;;;;;;;;;0.90;99.90;;;;;;5005282;28;19928;-65
2021/12/03 02:43:43;;;;;;;;;;;0.90;99.90;;;;;;5017850;28;19927;-67
2021/12/03 02:46:10;;;;;;;;;;;0.90;99.90;;;;;;5025154;28;19928;-65
2021/12/03 02:48:36;;;;;;;;;;;1.00;99.90;;;;;;5025183;28;19922;-65
2021/12/03 02:51:04;;;;;;;;;;;1.00;99.90;;;;;;5025083;28;20113;-65
2021/12/03 02:53:30;;;;;;;;;;;1.00;99.90;;;;;;5024898;28;20098;-65
2021/12/03 02:55:58;;;;;;;;;;;1.00;99.90;;;;;;5024910;28;19928;-65
2021/12/03 02:58:25;;;;;;;;;;;1.00;99.90;;;;;;5024921;28;19921;-65
2021/12/03 03:00:52;;;;;;;;;;;0.90;99.90;;;;;;5024642;28;20113;-65
2021/12/03 03:03:20;;;;;;;;;;;0.90;99.90;;;;;;5047244;23;20212;-68
2021/12/03 03:05:52;;;;;;;;;;;0.90;99.90;;;;;;5024352;28;20123;-68
2021/12/03 03:08:18;;;;;;;;;;;0.90;99.90;;;;;;5024409;28;20128;-68
2021/12/03 03:10:45;;;;;;;;;;;0.90;99.90;;;;;;5024294;28;19927;-68
2021/12/03 03:13:13;;;;;;;;;;;0.90;99.90;;;;;;5024349;28;19984;-68
2021/12/03 03:15:40;;;;;;;;;;;0.90;99.90;;;;;;5024335;28;19928;-69
2021/12/03 03:18:11;;;;;;;;;;;0.90;99.90;;;;;;5024391;28;20266;-69
2021/12/03 03:20:38;;;;;;;;;;;0.90;99.90;;;;;;5024230;28;19922;-68
2021/12/03 03:23:05;;;;;;;;;;;0.90;99.90;;;;;;5024262;28;19928;-68
2021/12/03 03:25:31;;;;;;;;;;;1.00;99.90;;;;;;5023924;28;19921;-68
2021/12/03 03:27:58;;;;;;;;;;;1.00;99.90;;;;;;5024128;28;20168;-68
2021/12/03 03:30:26;;;;;;;;;;;1.00;99.90;;;;;;5024509;28;19921;-68
2021/12/03 03:32:53;;;;;;;;;;;0.90;99.90;;;;;;5024271;28;19921;-67
2021/12/03 03:35:19;;;;;;;;;;;1.00;99.90;;;;;;5023898;28;20217;-68
2021/12/03 03:37:46;;;;;;;;;;;0.90;99.90;;;;;;5024205;28;19921;-68
2021/12/03 03:40:13;;;;;;;;;;;0.90;99.90;;;;;;5024202;28;19928;-69
2021/12/03 03:42:40;;;;;;;;;;;0.90;99.90;;;;;;5023850;28;19927;-68
2021/12/03 03:45:09;;;;;;;;;;;0.80;99.90;;;;;;5023862;28;19921;-68
2021/12/03 03:47:37;;;;;;;;;;;0.80;99.90;;;;;;5024131;28;20204;-68
2021/12/03 03:50:04;;;;;;;;;;;0.80;99.90;;;;;;5024035;28;19928;-68
2021/12/03 03:52:31;;;;;;;;;;;0.70;99.90;;;;;;5023621;28;20304;-68
2021/12/03 03:54:58;;;;;;;;;;;0.70;99.90;;;;;;5023812;28;19928;-68
2021/12/03 03:57:24;;;;;;;;;;;0.70;99.90;;;;;;5010065;28;20235;-68
2021/12/03 03:59:51;;;;;;;;;;;0.60;99.90;;;;;;5004191;28;19922;-68
2021/12/03 04:02:18;;;;;;;;;;;0.60;99.90;;;;;;5004159;28;19928;-68
2021/12/03 04:04:45;;;;;;;;;;;0.60;99.90;;;;;;5003950;28;19922;-69
2021/12/03 04:07:12;;;;;;;;;;;0.50;99.90;;;;;;5004005;28;20213;-68
2021/12/03 04:09:39;;;;;;;;;;;0.50;99.90;;;;;;5004198;28;19921;-68
2021/12/03 04:12:06;;;;;;;;;;;0.50;99.90;;;;;;5003842;28;19921;-67
2021/12/03 04:14:32;;;;;;;;;;;0.50;99.90;;;;;;5003640;28;19944;-68
2021/12/03 04:16:59;;;;;;;;;;;0.50;99.90;;;;;;5004182;28;19922;-68
2021/12/03 04:19:25;;;;;;;;;;;0.50;99.90;;;;;;5004063;28;20124;-68
2021/12/03 04:21:53;;;;;;;;;;;0.50;99.90;;;;;;5005271;28;19929;-68
2021/12/03 04:24:20;;;;;;;;;;;0.50;99.90;;;;;;5007843;28;19929;-68
2021/12/03 04:26:47;;;;;;;;;;;0.50;99.90;;;;;;5008017;28;19925;-68
2021/12/03 04:29:13;;;;;;;;;;;0.50;99.90;;;;;;5007991;28;19921;-68
2021/12/03 04:31:40;;;;;;;;;;;0.50;99.90;;;;;;5007806;28;19926;-67
2021/12/03 04:34:06;;;;;;;;;;;0.40;99.90;;;;;;5007697;28;20201;-68
2021/12/03 04:36:33;;;;;;;;;;;0.40;99.90;;;;;;5007543;28;19922;-68
2021/12/03 04:39:01;;;;;;;;;;;0.40;99.90;;;;;;5007670;28;19928;-68
2021/12/03 04:41:28;;;;;;;;;;;0.50;99.90;;;;;;5007686;28;20090;-68
2021/12/03 04:43:55;;;;;;;;;;;0.50;99.90;;;;;;5007526;28;19928;-68
2021/12/03 04:46:22;;;;;;;;;;;0.50;99.90;;;;;;5007725;28;19922;-68
2021/12/03 04:48:49;;;;;;;;;;;0.40;99.90;;;;;;5007585;28;19922;-68
2021/12/03 04:51:15;;;;;;;;;;;0.40;99.90;;;;;;5007719;28;19922;-68
2021/12/03 04:53:42;;;;;;;;;;;0.40;99.90;;;;;;5007345;28;19922;-68
2021/12/03 04:56:10;;;;;;;;;;;0.40;99.90;;;;;;5007344;28;20220;-68
2021/12/03 04:58:37;;;;;;;;;;;0.40;99.90;;;;;;5007446;28;19921;-68
2021/12/03 05:01:04;;;;;;;;;;;0.50;99.90;;;;;;5007443;28;19929;-68
2021/12/03 05:03:30;;;;;;;;;;;0.50;99.90;;;;;;5006169;28;19928;-68
2021/12/03 05:05:59;;;;;;;;;;;0.50;99.90;;;;;;5006342;28;20094;-68
2021/12/03 05:08:27;;;;;;;;;;;0.50;99.90;;;;;;5007114;28;20264;-68
2021/12/03 05:10:54;;;;;;;;;;;0.50;99.90;;;;;;5007105;28;20217;-68
2021/12/03 05:13:23;;;;;;;;;;;0.50;99.90;;;;;;5006923;28;19926;-68
2021/12/03 05:15:50;;;;;;;;;;;0.50;99.90;;;;;;5006724;28;19988;-68
2021/12/03 05:18:17;;;;;;;;;;;0.60;99.90;;;;;;5007188;28;19928;-68
2021/12/03 05:20:45;;;;;;;;;;;0.50;99.90;;;;;;5007988;28;19922;-68
2021/12/03 05:23:11;;;;;;;;;;;0.50;99.90;;;;;;5002895;28;19922;-68
2021/12/03 05:25:38;;;;;;;;;;;0.50;99.90;;;;;;4995769;28;19928;-68
2021/12/03 05:28:05;;;;;;;;;;;0.60;99.90;;;;;;5003787;28;19921;-68
2021/12/03 05:30:34;;;;;;;;;;;0.50;99.90;;;;;;5006660;28;19922;-69
2021/12/03 05:33:00;;;;;;;;;;;0.60;99.90;;;;;;5006819;28;19922;-68
2021/12/03 05:35:27;;;;;;;;;;;0.60;99.90;;;;;;5006464;28;19925;-68
2021/12/03 05:37:54;;;;;;;;;;;0.60;99.90;;;;;;5006773;28;19981;-68
2021/12/03 05:40:21;;;;;;;;;;;0.50;99.90;;;;;;5006770;28;19922;-68
2021/12/03 05:42:48;;;;;;;;;;;0.50;99.90;;;;;;5006428;28;20288;-68
2021/12/03 05:45:15;;;;;;;;;;;0.50;99.90;;;;;;5005416;28;20225;-68
2021/12/03 05:47:44;;;;;;;;;;;0.60;99.90;;;;;;5006616;28;19921;-70
2021/12/03 05:50:11;;;;;;;;;;;0.60;99.90;;;;;;5006032;28;20116;-70
2021/12/03 05:52:38;;;;;;;;;;;0.60;99.90;;;;;;5006437;28;19928;-70
2021/12/03 05:55:05;;;;;;;;;;;0.50;99.90;;;;;;5005877;28;19929;-70
2021/12/03 05:57:32;;;;;;;;;;;0.50;99.90;;;;;;5006187;28;19921;-71
2021/12/03 05:59:58;;;;;;;;;;;0.50;99.90;;;;;;5006529;28;19928;-70
2021/12/03 06:02:25;;;;;;;;;;;0.50;99.90;;;;;;5006010;28;20228;-68
2021/12/03 06:04:53;;;;;;;;;;;0.40;99.90;;;;;;5006161;28;19922;-68
2021/12/03 06:07:19;;;;;;;;;;;0.50;99.90;;;;;;5006159;28;19953;-68
2021/12/03 06:09:46;;;;;;;;;;;0.40;99.90;;;;;;5006259;28;20209;-68
2021/12/03 06:12:13;;;;;;;;;;;0.40;99.90;;;;;;5005955;28;20029;-69
2021/12/03 06:14:39;;;;;;;;;;;0.40;99.90;;;;;;5005560;28;19922;-68
2021/12/03 06:17:06;;;;;;;;;;;0.40;99.90;;;;;;5005876;28;19929;-68
2021/12/03 06:19:33;;;;;;;;;;;0.30;99.90;;;;;;5005822;28;19921;-68
2021/12/03 06:22:00;;;;;;;;;;;0.30;99.90;;;;;;5005524;28;19921;-68
2021/12/03 06:24:27;;;;;;;;;;;0.30;99.90;;;;;;5005251;28;20124;-68
2021/12/03 06:26:54;;;;;;;;;;;0.30;99.90;;;;;;5005342;28;19926;-68
2021/12/03 06:29:20;;;;;;;;;;;0.30;99.90;;;;;;5005675;28;19928;-68
2021/12/03 06:31:47;;;;;;;;;;;0.40;99.90;;;;;;5005436;28;19922;-69
2021/12/03 06:34:13;;;;;;;;;;;0.40;99.90;;;;;;5005078;28;19922;-69
2021/12/03 06:36:40;;;;;;;;;;;0.50;99.90;;;;;;5004818;28;19929;-67
2021/12/03 06:39:08;;;;;;;;;;;0.50;99.90;;;;;;5005402;28;20174;-70
2021/12/03 06:41:34;;;;;;;;;;;0.40;99.90;;;;;;5005201;28;19921;-68
2021/12/03 06:44:02;;;;;;;;;;;0.40;99.90;;;;;;5004360;28;19922;-69
2021/12/03 06:46:30;;;;;;;;;;;0.50;99.90;;;;;;5004107;28;20221;-69
2021/12/03 06:48:57;;;;;;;;;;;0.50;99.90;;;;;;5004728;28;19922;-69
2021/12/03 06:51:23;;;;;;;;;;;0.50;99.90;;;;;;5004987;28;19922;-70
2021/12/03 06:53:57;;;;;;;;;;;0.40;99.90;;;;;;5004360;28;19996;-69
2021/12/03 06:56:32;;;;;;;;;;;0.40;99.90;;;;;;5005059;28;19972;-69
2021/12/03 06:58:58;;;;;;;;;;;0.40;99.90;;;;;;5004845;28;19922;-69
2021/12/03 07:01:25;;;;;;;;;;;0.40;99.90;;;;;;5005023;28;19921;-69
2021/12/03 07:03:52;;;;;;;;;;;0.50;99.90;;;;;;5004222;28;19930;-69
2021/12/03 07:06:18;;;;;;;;;;;0.50;99.90;;;;;;5004657;28;19922;-69
2021/12/03 07:08:45;;;;;;;;;;;0.40;99.90;;;;;;5005026;28;20117;-69
2021/12/03 07:11:11;;;;;;;;;;;0.50;99.90;;;;;;5004753;28;19945;-69
2021/12/03 07:13:39;;;;;;;;;;;0.40;99.90;;;;;;5004380;28;19928;-69
2021/12/03 07:16:06;;;;;;;;;;;0.50;99.90;;;;;;5004586;28;19921;-69
2021/12/03 07:18:33;;;;;;;;;;;0.40;99.90;;;;;;5004645;28;20260;-69
2021/12/03 07:21:00;;;;;;;;;;;0.40;99.90;;;;;;5004516;28;19922;-69
2021/12/03 07:23:26;;;;;;;;;;;0.40;99.90;;;;;;5004658;28;19945;-69
2021/12/03 07:25:53;;;;;;;;;;;0.30;99.90;;;;;;5004637;28;20125;-70
2021/12/03 07:28:19;;;;;;;;;;;0.30;99.90;;;;;;5004769;28;19922;-69
2021/12/03 07:30:47;;;;;;;;;;;0.20;99.90;;;;;;5004896;28;19928;-69
2021/12/03 07:33:17;;;;;;;;;;;0.20;99.90;;;;;;5004336;28;20213;-69
2021/12/03 07:35:45;;;;;;;;;;;0.20;99.90;;;;;;5003754;28;19957;-70
2021/12/03 07:38:11;;;;;;;;;;;0.20;99.90;;;;;;5004439;28;20153;-69
2021/12/03 07:40:38;;;;;;;;;;;0.20;99.90;;;;;;5004450;28;19938;-69
2021/12/03 07:43:05;;;;;;;;;;;0.20;99.90;;;;;;5002430;28;19929;-68
2021/12/03 07:45:32;;;;;;;;;;;0.20;99.90;;;;;;5013714;28;19928;-69
2021/12/03 07:47:59;;;;;;;;;;;0.20;99.90;;;;;;5004465;28;19922;-69
2021/12/03 07:50:26;;;;;;;;;;;0.20;99.90;;;;;;5004124;28;19932;-71
2021/12/03 07:52:53;;;;;;;;;;;0.20;99.90;;;;;;5004042;28;19921;-70
2021/12/03 07:55:20;;;;;;;;;;;0.20;99.90;;;;;;5003893;28;20113;-69
2021/12/03 07:57:46;;;;;;;;;;;0.20;99.90;;;;;;5003631;28;19928;-69
2021/12/03 08:00:13;;;;;;;;;;;0.20;99.90;;;;;;5003880;28;20280;-70
2021/12/03 08:02:39;;;;;;;;;;;0.20;99.90;;;;;;5003794;28;20213;-69
2021/12/03 08:05:08;;;;;;;;;;;0.10;99.90;;;;;;5003988;28;19922;-69
2021/12/03 08:07:34;;;;;;;;;;;0.20;99.90;;;;;;5004216;28;20116;-69
2021/12/03 08:10:01;;;;;;;;;;;0.10;99.90;;;;;;5004250;28;19985;-69
2021/12/03 08:12:28;;;;;;;;;;;0.10;99.90;;;;;;5004041;28;19921;-69
2021/12/03 08:14:54;;;;;;;;;;;0.10;99.90;;;;;;5004076;28;19981;-69
2021/12/03 08:17:21;;;;;;;;;;;0.10;99.90;;;;;;5003893;28;19925;-69
2021/12/03 08:19:47;;;;;;;;;;;0.20;99.90;;;;;;5003927;28;20213;-69
2021/12/03 08:22:15;;;;;;;;;;;0.30;99.90;;;;;;5003754;28;19981;-69
2021/12/03 08:24:42;;;;;;;;;;;0.40;99.90;;;;;;5003449;28;19922;-69
2021/12/03 08:27:08;;;;;;;;;;;0.40;99.90;;;;;;5003989;28;20209;-69
2021/12/03 08:29:35;;;;;;;;;;;0.50;99.90;;;;;;5004014;28;19928;-68
2021/12/03 08:32:02;;;;;;;;;;;0.50;99.90;;;;;;5003877;28;19988;-69
2021/12/03 08:34:29;;;;;;;;;;;0.50;99.90;;;;;;5003436;28;19921;-69
2021/12/03 08:36:56;;;;;;;;;;;0.50;99.90;;;;;;5003915;28;19922;-69
2021/12/03 08:39:24;;;;;;;;;;;0.50;99.90;;;;;;5003590;28;19928;-69
2021/12/03 08:41:50;;;;;;;;;;;0.60;99.90;;;;;;5003998;28;20037;-69
2021/12/03 08:44:17;;;;;;;;;;;0.60;99.90;;;;;;5003563;28;19928;-69
2021/12/03 08:46:43;;;;;;;;;;;0.60;99.90;;;;;;5003527;28;19922;-69
2021/12/03 08:49:14;;;;;;;;;;;0.70;99.90;;;;;;5003572;28;20209;-69
2021/12/03 08:52:05;;;;;;;;;;;0.70;99.90;;;;;;4996456;28;19922;-69
2021/12/03 08:54:49;;;;;;;;;;;0.70;99.90;;;;;;5003238;28;20209;-71
2021/12/03 08:57:16;;;;;;;;;;;0.70;99.90;;;;;;5003956;28;19925;-69
2021/12/03 08:59:43;;;;;;;;;;;0.70;99.90;;;;;;5003795;28;20120;-69
2021/12/03 09:02:10;;;;;;;;;;;0.70;99.90;;;;;;5003643;28;19921;-69
2021/12/03 09:04:37;;;;;;;;;;;0.70;99.90;;;;;;5037299;23;19910;-90
2021/12/03 09:07:04;;;;;;;;;;;0.70;99.90;;;;;;5017281;28;19914;-90
2021/12/03 09:09:32;;;;;;;;;;;0.80;99.90;;;;;;5021505;28;19914;-91
2021/12/03 09:11:59;;;;;;;;;;;0.80;99.90;;;;;;5021391;28;19969;-90
2021/12/03 09:14:31;;;;;;;;;;;0.80;99.90;;;;;;5021007;28;19952;-91
2021/12/03 09:17:01;;;;;;;;;;;1.00;99.90;;;;;;5021676;28;19920;-89
2021/12/03 09:19:33;;;;;;;;;;;0.80;99.90;;;;;;5021584;28;19973;-89
2021/12/03 09:22:00;;;;;;;;;;;0.70;99.90;;;;;;5021009;28;19914;-89
2021/12/03 09:24:31;;;;;;;;;;;0.80;99.90;;;;;;5020842;28;19970;-89
2021/12/03 09:26:59;;;;;;;;;;;0.80;99.90;;;;;;5021337;28;19921;-89
2021/12/03 09:29:30;;;;;;;;;;;0.80;99.90;;;;;;5021236;28;19916;-88
2021/12/03 09:31:58;;;;;;;;;;;0.70;99.90;;;;;;5021395;28;19940;-88
2021/12/03 09:34:25;;;;;;;;;;;0.80;99.90;;;;;;5020604;28;19969;-89
2021/12/03 09:36:52;;;;;;;;;;;0.90;99.90;;;;;;5021157;28;19941;-89
2021/12/03 09:39:20;;;;;;;;;;;0.80;99.90;;;;;;5021461;23;19989;-67
2021/12/03 09:41:46;;;;;;;;;;;0.80;99.90;;;;;;5006591;28;20210;-67
2021/12/03 09:44:16;;;;;;;;;;;0.70;99.90;;;;;;5006408;28;20209;-67
2021/12/03 09:46:42;;;;;;;;;;;0.70;99.90;;;;;;5004026;28;19925;-67
2021/12/03 09:49:27;;;;;;;;;;;0.50;99.90;;;;;;5005890;28;19998;-67
2021/12/03 09:52:03;;;;;;;;;;;0.50;99.90;;;;;;4986800;28;19922;-67
2021/12/03 09:54:34;;;;;;;;;;;0.50;99.90;;;;;;4986841;28;19922;-67
2021/12/03 09:57:04;;;;;;;;;;;0.50;99.90;;;;;;5006051;28;19922;-67
2021/12/03 10:02:31;;;;;;;;;;;0.50;99.90;;;;;;5006288;28;20197;-67
2021/12/03 10:13:19;;;;;;;;;;;0.40;99.90;;;;;;4988743;28;20229;-67
2021/12/03 10:15:58;;;;;;;;;;;0.40;99.90;;;;;;4997683;28;19922;-67
2021/12/03 10:18:32;;;;;;;;;;;0.40;99.90;;;;;;4986751;28;20163;-67
2021/12/03 10:21:05;;;;;;;;;;;0.50;99.90;;;;;;4985722;28;19926;-67
2021/12/03 10:29:39;;;;;;;;;;;0.40;99.90;;;;;;5100944;28;19971;-69
2021/12/03 10:40:50;;;;;;;;;;;0.50;99.90;;;;;;5060554;28;20121;-68
2021/12/03 10:46:11;;;;;;;;;;;0.50;99.90;;;;;;5053241;28;19921;-68
2021/12/03 10:48:47;;;;;;;;;;;0.60;99.90;;;;;;5080601;28;19921;-67
2021/12/03 10:51:26;;;;;;;;;;;0.60;99.90;;;;;;5080139;28;19921;-68
2021/12/03 10:53:58;;;;;;;;;;;0.60;99.90;;;;;;5080245;28;19921;-68
2021/12/03 10:56:43;;;;;;;;;;;0.60;99.90;;;;;;5080460;28;19920;-68
2021/12/03 10:59:32;;;;;;;;;;;0.60;99.90;;;;;;5080255;28;19920;-67
2021/12/03 11:13:43;;;;;;;;;;;0.70;99.90;;;;;;5079923;28;19924;-67
2021/12/03 11:30:20;;;;;;;;;;;0.80;99.90;;;;;;5079537;28;19924;-68
2021/12/03 11:36:17;;;;;;;;;;;0.80;99.90;;;;;;5055963;28;19935;-68
2021/12/03 11:42:55;;;;;;;;;;;0.80;99.90;;;;;;5004913;28;19961;-70
2021/12/03 13:09:12;;;;;;;;;;;1.40;99.90;;;;;;5082307;28;19952;-67
2021/12/03 13:25:56;;;;;;;;;;;1.50;99.90;;;;;;5083559;28;19944;-70
2021/12/03 13:59:55;;;;;;;;;;;1.50;99.90;;;;;;5082823;28;19954;-68
2021/12/03 14:02:51;;;;;;;;;;;1.60;99.90;;;;;;5068528;28;19921;-68
2021/12/03 14:08:51;;;;;;;;;;;1.50;99.90;;;;;;5041024;28;20232;-68
2021/12/03 14:42:10;;;;;;;;;;;1.40;99.90;;;;;;4985438;28;19925;-69
2021/12/03 14:44:54;;;;;;;;;;;1.40;99.90;;;;;;5035418;28;19921;-67
2021/12/03 14:47:51;;;;;;;;;;;1.40;99.90;;;;;;5081380;28;20116;-68
2021/12/03 14:50:39;;;;;;;;;;;1.40;99.90;;;;;;5076655;28;19921;-67
2021/12/03 14:55:53;;;;;;;;;;;1.30;99.90;;;;;;5067033;28;20258;-67
2021/12/03 14:58:21;;;;;;;;;;;1.40;99.90;;;;;;5072677;28;19935;-68
2021/12/03 15:00:54;;;;;;;;;;;1.40;99.90;;;;;;5062152;28;19921;-69
2021/12/03 15:03:31;;;;;;;;;;;1.30;99.90;;;;;;5068681;28;19944;-68
2021/12/03 15:06:07;;;;;;;;;;;1.30;99.90;;;;;;5071672;28;19944;-69
2021/12/03 15:08:38;;;;;;;;;;;1.30;99.90;;;;;;5081017;28;20088;-69
2021/12/03 15:22:24;;;;;;;;;;;1.30;99.90;;;;;;5069669;28;19939;-68
2021/12/03 15:25:03;;;;;;;;;;;1.20;99.90;;;;;;5076614;28;19927;-69
2021/12/03 15:30:43;;;;;;;;;;;1.20;99.90;;;;;;5058358;28;19923;-68
2021/12/03 15:33:14;;;;;;;;;;;1.20;99.90;;;;;;5074147;28;19920;-69
2021/12/03 15:35:53;;;;;;;;;;;1.20;99.90;;;;;;5079663;28;19951;-67
2021/12/03 16:03:43;;;;;;;;;;;1.00;99.90;;;;;;5070705;28;19959;-71
2021/12/03 16:06:28;;;;;;;;;;;1.00;99.90;;;;;;5068641;28;20208;-70
2021/12/03 16:09:00;;;;;;;;;;;0.90;99.90;;;;;;5077094;28;19921;-70
2021/12/03 16:11:39;;;;;;;;;;;0.90;99.90;;;;;;5069613;28;20207;-72
2021/12/03 16:19:59;;;;;;;;;;;0.90;99.90;;;;;;5074196;28;19974;-70
2021/12/03 16:22:45;;;;;;;;;;;0.90;99.90;;;;;;5068469;28;19967;-71
2021/12/03 16:25:23;;;;;;;;;;;0.90;99.90;;;;;;5064541;28;19921;-70
2021/12/03 16:44:26;;;;;;;;;;;0.90;99.90;;;;;;5069551;28;20145;-70
2021/12/03 16:47:01;;;;;;;;;;;0.90;99.90;;;;;;5085126;28;20212;-70
2021/12/03 16:52:18;;;;;;;;;;;0.90;99.90;;;;;;5084873;28;19959;-70
2021/12/03 16:54:49;;;;;;;;;;;0.90;99.90;;;;;;5084289;28;19935;-70
2021/12/03 16:57:17;;;;;;;;;;;0.90;99.90;;;;;;5084715;28;19927;-70
2021/12/03 16:59:45;;;;;;;;;;;0.90;99.90;;;;;;5084924;28;19928;-70
2021/12/03 17:02:16;;;;;;;;;;;0.80;99.90;;;;;;5084566;28;20208;-69
2021/12/03 17:25:01;;;;;;;;;;;0.90;99.90;;;;;;5120888;28;19958;-69
2021/12/03 17:49:35;;;;;;;;;;;0.70;99.90;;;;;;5120388;28;19937;-69
2021/12/03 17:52:24;;;;;;;;;;;0.70;99.90;;;;;;5121113;28;19924;-69
2021/12/03 17:55:10;;;;;;;;;;;0.80;99.90;;;;;;5120152;28;19955;-69
2021/12/03 17:57:41;;;;;;;;;;;0.70;99.90;;;;;;5121171;28;20184;-69
2021/12/03 18:00:13;;;;;;;;;;;0.70;99.90;;;;;;5113973;28;19921;-69
2021/12/03 18:02:43;;;;;;;;;;;0.70;99.90;;;;;;5113330;28;19924;-69
2021/12/03 18:05:26;;;;;;;;;;;0.70;99.90;;;;;;5099972;28;19920;-72
2021/12/03 18:08:05;;;;;;;;;;;0.60;99.90;;;;;;5100560;28;19927;-69
2021/12/03 18:16:18;;;;;;;;;;;0.60;99.90;;;;;;5120445;28;19916;-69
2021/12/03 18:19:14;;;;;;;;;;;0.60;99.90;;;;;;5118259;28;19924;-70
2021/12/03 18:49:30;;;;;;;;;;;0.40;99.90;;;;;;5121533;28;19924;-70
2021/12/03 18:55:00;;;;;;;;;;;0.30;99.90;;;;;;5078465;28;19920;-71
2021/12/03 18:57:29;;;;;;;;;;;0.20;99.90;;;;;;5079052;28;19995;-71
2021/12/03 18:59:59;;;;;;;;;;;0.20;99.90;;;;;;5099664;28;19920;-71
2021/12/03 19:02:28;;;;;;;;;;;0.20;99.90;;;;;;5121486;28;19974;-70
2021/12/03 19:04:59;;;;;;;;;;;0.20;99.90;;;;;;5120887;28;19926;-69
2021/12/03 19:07:29;;;;;;;;;;;0.20;99.90;;;;;;5121383;28;19990;-70
2021/12/03 19:09:59;;;;;;;;;;;0.20;99.90;;;;;;5120995;28;19987;-69
2021/12/03 19:12:28;;;;;;;;;;;0.20;99.90;;;;;;5120986;28;20265;-70
2021/12/03 19:14:56;;;;;;;;;;;0.20;99.90;;;;;;5120584;28;19923;-70
2021/12/03 19:17:24;;;;;;;;;;;0.30;99.90;;;;;;5121401;28;19920;-70
2021/12/03 19:19:56;;;;;;;;;;;0.30;99.90;;;;;;5121065;28;20327;-70
2021/12/03 19:22:23;;;;;;;;;;;0.30;99.90;;;;;;5121219;28;19931;-70
2021/12/03 19:24:49;;;;;;;;;;;0.40;99.90;;;;;;5116591;28;19981;-68
2021/12/03 19:27:18;;;;;;;;;;;0.40;99.90;;;;;;5106937;28;19995;-68
2021/12/03 19:29:44;;;;;;;;;;;0.40;99.90;;;;;;5116169;28;19920;-68
2021/12/03 19:32:11;;;;;;;;;;;0.40;99.90;;;;;;5120849;28;19926;-67
2021/12/03 19:34:37;;;;;;;;;;;0.30;99.90;;;;;;5116676;28;19934;-67
2021/12/03 19:37:06;;;;;;;;;;;0.30;99.90;;;;;;5121118;28;19951;-68
2021/12/03 19:39:34;;;;;;;;;;;0.30;99.90;;;;;;5114594;28;20234;-67
2021/12/03 19:42:05;;;;;;;;;;;0.30;99.90;;;;;;5100289;28;19959;-67
2021/12/03 19:44:45;;;;;;;;;;;0.30;99.90;;;;;;5109192;28;19943;-67
2021/12/03 19:47:13;;;;;;;;;;;0.30;99.90;;;;;;5129658;28;19920;-67
2021/12/03 19:49:49;;;;;;;;;;;0.20;99.90;;;;;;5132045;28;19924;-69
2021/12/03 19:52:24;;;;;;;;;;;0.20;99.90;;;;;;5141184;28;19920;-69
2021/12/03 19:54:51;;;;;;;;;;;0.20;99.90;;;;;;5140600;27;19919;-69
2021/12/03 19:57:18;;;;;;;;;;;0.20;99.90;;;;;;5131164;28;19926;-69
2021/12/03 19:59:44;;;;;;;;;;;0.20;99.90;;;;;;5118055;28;19920;-69
2021/12/03 20:02:11;;;;;;;;;;;0.20;99.90;;;;;;5106811;28;19923;-71
2021/12/03 20:04:38;;;;;;;;;;;0.20;99.90;;;;;;5105950;28;19934;-70
2021/12/03 20:07:04;;;;;;;;;;;0.20;99.90;;;;;;5106881;28;19920;-69
2021/12/03 20:09:40;;;;;;;;;;;0.20;99.90;;;;;;5115281;28;19919;-69
2021/12/03 20:12:11;;;;;;;;;;;0.20;99.90;;;;;;5107976;28;19962;-70
2021/12/03 20:14:40;;;;;;;;;;;0.20;99.90;;;;;;5115367;28;19923;-70
2021/12/03 20:17:10;;;;;;;;;;;0.10;99.90;;;;;;5126575;28;19942;-70
2021/12/03 20:19:38;;;;;;;;;;;0.10;99.90;;;;;;5126830;28;19954;-69
2021/12/03 20:22:10;;;;;;;;;;;0.20;99.90;;;;;;5108084;28;19948;-70
2021/12/03 20:27:19;;;;;;;;;;;0.10;99.90;;;;;;5103116;28;19920;-68
2021/12/03 20:29:50;;;;;;;;;;;0.10;99.90;;;;;;5113401;28;19939;-68
2021/12/03 20:32:24;;;;;;;;;;;0.10;99.90;;;;;;5109790;28;19920;-68
2021/12/03 20:34:58;;;;;;;;;;;0.10;99.90;;;;;;5120838;28;19923;-69
2021/12/03 20:37:28;;;;;;;;;;;0.10;99.90;;;;;;5105079;28;19928;-69
2021/12/03 20:40:00;;;;;;;;;;;0.10;99.90;;;;;;5113858;28;19981;-68
2021/12/03 20:42:30;;;;;;;;;;;0.10;99.90;;;;;;5109104;28;19927;-68
2021/12/03 20:45:25;;;;;;;;;;;0.10;99.90;;;;;;5103294;28;19920;-69
2021/12/03 20:48:06;;;;;;;;;;;0.10;99.90;;;;;;5105169;28;19923;-71
2021/12/03 20:50:51;;;;;;;;;;;0.20;99.90;;;;;;5113305;28;19968;-69
2021/12/03 20:53:33;;;;;;;;;;;0.20;99.90;;;;;;5126011;28;19990;-69
2021/12/03 21:09:44;;;;;;;;;;;0.10;99.90;;;;;;5124736;28;20241;-70
2021/12/03 21:12:21;;;;;;;;;;;0.10;99.90;;;;;;5106802;27;20089;-69